Archival Weather

Aeroparque Jorge Newbery

Buenos Aires, Argentina (SABE)

Report from: Thursday, February 22, 2024 4:00 AM -03
Current time: Tuesday, April 23, 2024 5:57 AM -03

Current weather – Weather history – Daily summaries
Weather forecast

Temperature25.0°C (77.0°F)
Dew point20.0°C (68.0°F)
Winds 11 kts (5.7 m/s, 12.7 mph) North (10°)
Visibility5.6 mi. (9 km)
Altimeter29.74 in.Hg (1007 mB)
Relative humidity74 %
Density altitude1,686 ft. (514 m)
Remarks No significant changes expected in the next two hours
Flight conditions Visual Meteorological Conditions
Raw dataSABE 220700Z 01011KT 9000 NSC 25/20 Q1007 NOSIG
An error has occurred. This application may no longer respond until reloaded. Reload 🗙